Time;durP1;ratioP1;P1;durP2;ratioP2;P2;SDS_P1;SDS_P2;PMS_P1;PMS_P2;Temp;Humidity;BMP_temperature;BMP_pressure;BME280_temperature;BME280_humidity;BME280_pressure;Samples;Min_cycle;Max_cycle;Signal;HPM_P1;HPM_P2
2023/05/18 00:00:34;;;;;;;;;;;13.10;71.30;;;;;;5087678;28;19999;-68
2023/05/18 00:03:00;;;;;;;;;;;13.10;71.30;;;;;;5091240;28;19975;-69
2023/05/18 00:05:32;;;;;;;;;;;13.10;71.40;;;;;;5081052;28;19976;-68
2023/05/18 00:07:59;;;;;;;;;;;13.10;71.50;;;;;;5085436;28;20018;-68
2023/05/18 00:10:26;;;;;;;;;;;13.00;71.50;;;;;;5083242;28;19978;-68
2023/05/18 00:12:52;;;;;;;;;;;13.00;71.60;;;;;;5083084;28;19982;-67
2023/05/18 00:15:19;;;;;;;;;;;13.00;72.40;;;;;;5080372;28;19998;-69
2023/05/18 00:17:47;;;;;;;;;;;12.90;71.60;;;;;;5083770;28;20028;-68
2023/05/18 00:20:14;;;;;;;;;;;12.90;71.60;;;;;;5081946;28;19975;-70
2023/05/18 00:22:41;;;;;;;;;;;12.90;71.80;;;;;;5084924;28;19975;-69
2023/05/18 00:25:08;;;;;;;;;;;12.90;71.80;;;;;;5082938;28;19979;-68
2023/05/18 00:27:34;;;;;;;;;;;12.80;71.70;;;;;;5085789;28;19991;-68
2023/05/18 00:30:01;;;;;;;;;;;12.80;71.80;;;;;;5077724;28;20417;-68
2023/05/18 00:32:27;;;;;;;;;;;12.80;71.80;;;;;;5078680;28;20002;-68
2023/05/18 00:34:55;;;;;;;;;;;12.70;71.90;;;;;;5080917;28;19991;-68
2023/05/18 00:37:22;;;;;;;;;;;12.70;72.00;;;;;;5083160;28;19995;-68
2023/05/18 00:39:48;;;;;;;;;;;12.60;71.90;;;;;;5083039;28;19983;-68
2023/05/18 00:42:15;;;;;;;;;;;12.60;71.90;;;;;;5088447;28;19982;-69
2023/05/18 00:44:42;;;;;;;;;;;12.60;71.90;;;;;;5088021;28;19990;-69
2023/05/18 00:47:08;;;;;;;;;;;12.60;71.90;;;;;;5083467;28;20351;-69
2023/05/18 00:49:35;;;;;;;;;;;12.60;72.00;;;;;;5093119;28;19990;-68
2023/05/18 00:52:03;;;;;;;;;;;12.50;72.00;;;;;;5087909;28;19975;-68
2023/05/18 00:54:32;;;;;;;;;;;12.50;72.10;;;;;;5084297;28;19983;-69
2023/05/18 00:57:00;;;;;;;;;;;12.50;72.20;;;;;;5083643;28;20432;-68
2023/05/18 00:59:28;;;;;;;;;;;12.40;72.10;;;;;;5089037;28;19979;-68
2023/05/18 01:01:54;;;;;;;;;;;12.40;72.20;;;;;;5083047;28;19991;-68
2023/05/18 01:04:23;;;;;;;;;;;12.40;72.20;;;;;;5083624;28;20018;-68
2023/05/18 01:06:55;;;;;;;;;;;12.30;72.10;;;;;;5081894;28;20020;-68
2023/05/18 01:09:23;;;;;;;;;;;12.30;72.10;;;;;;5084174;28;20103;-68
2023/05/18 01:11:55;;;;;;;;;;;12.30;72.00;;;;;;5086907;28;19979;-68
2023/05/18 01:14:25;;;;;;;;;;;12.30;71.90;;;;;;5083797;28;19986;-68
2023/05/18 01:16:55;;;;;;;;;;;12.30;71.90;;;;;;5080125;28;20758;-68
2023/05/18 01:19:36;;;;;;;;;;;12.20;71.70;;;;;;5082563;28;20779;-68
2023/05/18 01:22:07;;;;;;;;;;;12.20;71.60;;;;;;5083882;28;20634;-68
2023/05/18 01:24:38;;;;;;;;;;;12.20;71.60;;;;;;5086188;28;20064;-68
2023/05/18 01:27:07;;;;;;;;;;;12.10;71.60;;;;;;5083305;28;20065;-68
2023/05/18 01:29:34;;;;;;;;;;;12.10;71.50;;;;;;5082186;28;19983;-68
2023/05/18 01:32:00;;;;;;;;;;;12.10;71.90;;;;;;5079113;28;19998;-68
2023/05/18 01:34:27;;;;;;;;;;;12.00;71.50;;;;;;5081669;28;20005;-68
2023/05/18 01:36:54;;;;;;;;;;;12.00;71.60;;;;;;5081105;28;20002;-68
2023/05/18 01:39:20;;;;;;;;;;;12.00;71.70;;;;;;5081872;28;20459;-68
2023/05/18 01:41:51;;;;;;;;;;;12.00;71.80;;;;;;5086925;28;19975;-68
2023/05/18 01:44:20;;;;;;;;;;;12.00;71.90;;;;;;5075759;28;20416;-68
2023/05/18 01:46:51;;;;;;;;;;;12.00;72.10;;;;;;5074040;28;19995;-68
2023/05/18 01:49:24;;;;;;;;;;;11.90;72.10;;;;;;5083736;28;19982;-68
2023/05/18 01:51:51;;;;;;;;;;;11.90;72.10;;;;;;5085537;28;19975;-67
2023/05/18 01:54:19;;;;;;;;;;;11.90;72.10;;;;;;5092939;28;20036;-67
2023/05/18 01:56:47;;;;;;;;;;;11.80;72.10;;;;;;5079882;28;19995;-67
2023/05/18 01:59:14;;;;;;;;;;;11.80;72.20;;;;;;5086349;28;19975;-67
2023/05/18 02:01:42;;;;;;;;;;;11.80;72.20;;;;;;5080466;28;20040;-67
2023/05/18 02:04:09;;;;;;;;;;;11.80;72.20;;;;;;5085301;28;19975;-68
2023/05/18 02:06:36;;;;;;;;;;;11.80;72.20;;;;;;5077703;28;20784;-68
2023/05/18 02:09:02;;;;;;;;;;;11.70;72.20;;;;;;5084758;28;20054;-67
2023/05/18 02:11:29;;;;;;;;;;;11.70;72.30;;;;;;5082510;28;19979;-68
2023/05/18 02:13:55;;;;;;;;;;;11.70;72.30;;;;;;5084777;28;19981;-67
2023/05/18 02:16:22;;;;;;;;;;;11.60;72.40;;;;;;5082575;28;20411;-68
2023/05/18 02:18:51;;;;;;;;;;;11.60;72.50;;;;;;5095043;28;19986;-67
2023/05/18 02:21:18;;;;;;;;;;;11.60;72.70;;;;;;5079237;28;20014;-67
2023/05/18 02:23:44;;;;;;;;;;;11.60;72.60;;;;;;5084397;28;19978;-67
2023/05/18 02:26:11;;;;;;;;;;;11.60;72.60;;;;;;5084200;28;20001;-67
2023/05/18 02:28:38;;;;;;;;;;;11.50;72.60;;;;;;5085238;28;19974;-67
2023/05/18 02:31:06;;;;;;;;;;;11.50;72.60;;;;;;5087470;28;20701;-67
2023/05/18 02:33:38;;;;;;;;;;;11.50;72.60;;;;;;5081790;28;20474;-67
2023/05/18 02:36:07;;;;;;;;;;;11.40;72.70;;;;;;5085646;28;19999;-67
2023/05/18 02:38:35;;;;;;;;;;;11.40;72.70;;;;;;5085186;28;19979;-67
2023/05/18 02:41:02;;;;;;;;;;;11.40;72.70;;;;;;5084598;28;19979;-67
2023/05/18 02:43:28;;;;;;;;;;;11.40;72.70;;;;;;5080347;28;19990;-67
2023/05/18 02:45:55;;;;;;;;;;;11.30;72.70;;;;;;5085688;28;19998;-67
2023/05/18 02:48:21;;;;;;;;;;;11.30;72.70;;;;;;5086143;28;20372;-67
2023/05/18 02:50:48;;;;;;;;;;;11.30;72.80;;;;;;5078205;28;19975;-68
2023/05/18 02:53:16;;;;;;;;;;;11.30;72.80;;;;;;5094958;28;19975;-68
2023/05/18 02:55:42;;;;;;;;;;;11.20;72.80;;;;;;5081877;28;19994;-67
2023/05/18 02:58:09;;;;;;;;;;;11.20;72.80;;;;;;5092422;28;20065;-67
2023/05/18 03:00:35;;;;;;;;;;;11.20;72.80;;;;;;5088442;28;20005;-68
2023/05/18 03:03:03;;;;;;;;;;;11.20;72.80;;;;;;5087216;28;20010;-67
2023/05/18 03:05:29;;;;;;;;;;;11.10;72.90;;;;;;5081943;28;19975;-68
2023/05/18 03:07:56;;;;;;;;;;;11.10;72.90;;;;;;5091197;28;19981;-67
2023/05/18 03:10:24;;;;;;;;;;;11.10;72.90;;;;;;5087542;28;19983;-68
2023/05/18 03:12:50;;;;;;;;;;;11.10;72.90;;;;;;5085310;28;20406;-68
2023/05/18 03:15:18;;;;;;;;;;;11.00;72.90;;;;;;5079069;28;19982;-67
2023/05/18 03:17:45;;;;;;;;;;;11.00;72.90;;;;;;5091560;28;20665;-67
2023/05/18 03:20:13;;;;;;;;;;;11.00;73.00;;;;;;5084719;28;19979;-67
2023/05/18 03:22:40;;;;;;;;;;;11.00;73.00;;;;;;5084061;28;19975;-67
2023/05/18 03:25:06;;;;;;;;;;;10.90;73.10;;;;;;5085274;28;19986;-67
2023/05/18 03:27:36;;;;;;;;;;;10.90;73.20;;;;;;5083869;28;20003;-67
2023/05/18 03:30:03;;;;;;;;;;;10.90;73.20;;;;;;5080167;28;20469;-68
2023/05/18 03:32:30;;;;;;;;;;;10.80;73.10;;;;;;5083668;28;19994;-67
2023/05/18 03:34:59;;;;;;;;;;;10.80;73.20;;;;;;5081751;28;20502;-67
2023/05/18 03:37:26;;;;;;;;;;;10.80;73.20;;;;;;5083987;28;19995;-68
2023/05/18 03:39:52;;;;;;;;;;;10.80;73.20;;;;;;5081248;28;19983;-67
2023/05/18 03:42:19;;;;;;;;;;;10.80;73.30;;;;;;5085095;28;19987;-67
2023/05/18 03:44:47;;;;;;;;;;;10.80;73.40;;;;;;5080150;28;19982;-67
2023/05/18 03:47:13;;;;;;;;;;;10.80;73.50;;;;;;5084217;28;20069;-67
2023/05/18 03:49:40;;;;;;;;;;;10.80;73.50;;;;;;5092350;28;20441;-67
2023/05/18 03:52:07;;;;;;;;;;;10.80;73.60;;;;;;5095149;28;20452;-67
2023/05/18 03:54:33;;;;;;;;;;;10.70;73.60;;;;;;5093077;28;20244;-67
2023/05/18 03:57:00;;;;;;;;;;;10.70;73.70;;;;;;5087280;28;20068;-67
2023/05/18 03:59:27;;;;;;;;;;;10.70;73.70;;;;;;5083689;28;19982;-67
2023/05/18 04:01:54;;;;;;;;;;;10.70;73.80;;;;;;5089139;28;20036;-67
2023/05/18 04:04:22;;;;;;;;;;;10.70;73.80;;;;;;5089234;28;20068;-67
2023/05/18 04:06:50;;;;;;;;;;;10.60;73.80;;;;;;5082265;28;20362;-67
2023/05/18 04:09:17;;;;;;;;;;;10.60;73.80;;;;;;5085186;28;19983;-67
2023/05/18 04:11:43;;;;;;;;;;;10.60;74.00;;;;;;5081838;28;20066;-68
2023/05/18 04:14:11;;;;;;;;;;;10.60;74.00;;;;;;5083558;28;19975;-67
2023/05/18 04:16:37;;;;;;;;;;;10.60;74.10;;;;;;5082596;28;19999;-67
2023/05/18 04:19:06;;;;;;;;;;;10.50;74.00;;;;;;5083530;28;19998;-67
2023/05/18 04:21:34;;;;;;;;;;;10.60;74.20;;;;;;5080758;28;20018;-68
2023/05/18 04:24:02;;;;;;;;;;;10.60;74.20;;;;;;5085519;28;20031;-67
2023/05/18 04:26:29;;;;;;;;;;;10.50;74.30;;;;;;5087221;28;19991;-67
2023/05/18 04:28:58;;;;;;;;;;;10.60;74.40;;;;;;5084260;28;19979;-67
2023/05/18 04:31:26;;;;;;;;;;;10.50;74.50;;;;;;5080069;28;19995;-67
2023/05/18 04:33:53;;;;;;;;;;;10.50;74.40;;;;;;5084589;28;19975;-67
2023/05/18 04:36:24;;;;;;;;;;;10.50;74.50;;;;;;5082079;28;20503;-67
2023/05/18 04:38:51;;;;;;;;;;;10.50;74.60;;;;;;5084375;28;19979;-67
2023/05/18 04:41:19;;;;;;;;;;;10.40;74.60;;;;;;5086776;28;20361;-67
2023/05/18 04:43:46;;;;;;;;;;;10.40;74.70;;;;;;5081319;28;19974;-67
2023/05/18 04:46:12;;;;;;;;;;;10.40;75.40;;;;;;5081075;28;20060;-67
2023/05/18 04:48:39;;;;;;;;;;;10.40;74.70;;;;;;5085799;28;19975;-68
2023/05/18 04:51:05;;;;;;;;;;;10.40;74.80;;;;;;5082622;28;19994;-67
2023/05/18 04:53:34;;;;;;;;;;;10.40;74.90;;;;;;5082301;28;20029;-67
2023/05/18 04:56:01;;;;;;;;;;;10.40;74.90;;;;;;5086168;28;20002;-67
2023/05/18 04:58:29;;;;;;;;;;;10.40;75.00;;;;;;5092046;28;20065;-67
2023/05/18 05:00:56;;;;;;;;;;;10.30;75.00;;;;;;5084083;28;19991;-67
2023/05/18 05:03:22;;;;;;;;;;;10.30;75.10;;;;;;5082660;28;19975;-67
2023/05/18 05:05:49;;;;;;;;;;;10.30;75.20;;;;;;5080920;28;19982;-67
2023/05/18 05:08:15;;;;;;;;;;;10.30;75.20;;;;;;5082690;28;20425;-67
2023/05/18 05:10:43;;;;;;;;;;;10.30;75.20;;;;;;5084223;28;20062;-67
2023/05/18 05:13:10;;;;;;;;;;;10.30;75.30;;;;;;5082542;28;19975;-67
2023/05/18 05:15:36;;;;;;;;;;;10.30;75.30;;;;;;5081480;28;20006;-67
2023/05/18 05:18:03;;;;;;;;;;;10.20;75.20;;;;;;5090305;28;19990;-67
2023/05/18 05:20:30;;;;;;;;;;;10.30;75.30;;;;;;5084033;28;19975;-67
2023/05/18 05:22:56;;;;;;;;;;;10.30;75.30;;;;;;5082707;28;19975;-67
2023/05/18 05:25:23;;;;;;;;;;;10.30;75.40;;;;;;5081929;28;20035;-67
2023/05/18 05:27:50;;;;;;;;;;;10.30;75.30;;;;;;5085235;28;20559;-67
2023/05/18 05:30:17;;;;;;;;;;;10.30;75.30;;;;;;5080202;28;20397;-67
2023/05/18 05:32:43;;;;;;;;;;;10.30;75.30;;;;;;5086600;28;20719;-67
2023/05/18 05:35:10;;;;;;;;;;;10.20;75.30;;;;;;5082530;28;19983;-68
2023/05/18 05:37:37;;;;;;;;;;;10.20;75.20;;;;;;5092270;28;19999;-67
2023/05/18 05:40:05;;;;;;;;;;;10.30;75.30;;;;;;5083368;28;19986;-67
2023/05/18 05:42:31;;;;;;;;;;;10.20;75.20;;;;;;5080774;28;20026;-67
2023/05/18 05:44:59;;;;;;;;;;;10.20;75.20;;;;;;5079935;28;20527;-67
2023/05/18 05:47:26;;;;;;;;;;;10.30;75.20;;;;;;5081419;28;19991;-68
2023/05/18 05:49:52;;;;;;;;;;;10.30;75.20;;;;;;5087547;28;20404;-67
2023/05/18 05:52:19;;;;;;;;;;;10.30;75.20;;;;;;5082997;28;19982;-67
2023/05/18 05:54:46;;;;;;;;;;;10.30;75.10;;;;;;5082318;28;19975;-67
2023/05/18 05:57:12;;;;;;;;;;;10.30;75.00;;;;;;5088838;28;19995;-67
2023/05/18 05:59:39;;;;;;;;;;;10.30;75.00;;;;;;5081778;28;19979;-68
2023/05/18 06:02:06;;;;;;;;;;;10.30;75.00;;;;;;5081925;28;20491;-67
2023/05/18 06:04:33;;;;;;;;;;;10.30;74.90;;;;;;5081709;28;20072;-67
2023/05/18 06:07:00;;;;;;;;;;;10.30;74.90;;;;;;5081437;28;19991;-67
2023/05/18 06:09:27;;;;;;;;;;;10.30;74.90;;;;;;5082096;28;19976;-67
2023/05/18 06:11:53;;;;;;;;;;;10.30;74.90;;;;;;5087775;28;19981;-67
2023/05/18 06:14:20;;;;;;;;;;;10.30;74.90;;;;;;5075145;28;19975;-67
2023/05/18 06:16:46;;;;;;;;;;;10.30;74.90;;;;;;5089237;28;20424;-67
2023/05/18 06:19:14;;;;;;;;;;;10.30;74.90;;;;;;5082096;28;19975;-67
2023/05/18 06:21:41;;;;;;;;;;;10.40;75.00;;;;;;5080107;28;19974;-68
2023/05/18 06:24:07;;;;;;;;;;;10.40;75.00;;;;;;5081513;28;19979;-68
2023/05/18 06:26:34;;;;;;;;;;;10.40;75.00;;;;;;5086686;28;19995;-67
2023/05/18 06:29:01;;;;;;;;;;;10.40;75.00;;;;;;5081246;28;19979;-68
2023/05/18 06:31:28;;;;;;;;;;;10.40;74.90;;;;;;5081948;28;19999;-68
2023/05/18 06:33:55;;;;;;;;;;;10.40;74.90;;;;;;5083796;28;19982;-67
2023/05/18 06:36:22;;;;;;;;;;;10.40;74.90;;;;;;5083110;28;20823;-67
2023/05/18 06:38:49;;;;;;;;;;;10.40;74.90;;;;;;5082945;28;20559;-67
2023/05/18 06:41:16;;;;;;;;;;;10.40;74.90;;;;;;5083616;28;20019;-68
2023/05/18 06:43:42;;;;;;;;;;;10.50;75.00;;;;;;5078303;28;19975;-68
2023/05/18 06:46:09;;;;;;;;;;;10.50;75.00;;;;;;5088057;28;20733;-68
2023/05/18 06:48:36;;;;;;;;;;;10.50;74.90;;;;;;5079314;28;19979;-67
2023/05/18 06:51:03;;;;;;;;;;;10.50;74.70;;;;;;5078649;28;20079;-67
2023/05/18 06:53:31;;;;;;;;;;;10.50;74.60;;;;;;5086503;28;20021;-67
2023/05/18 06:55:58;;;;;;;;;;;10.60;74.50;;;;;;5082831;28;20736;-67
2023/05/18 06:58:24;;;;;;;;;;;10.60;74.30;;;;;;5081999;28;20044;-67
2023/05/18 07:00:52;;;;;;;;;;;10.60;74.20;;;;;;5086195;28;19991;-67
2023/05/18 07:03:19;;;;;;;;;;;10.60;74.00;;;;;;5086910;28;19975;-67
2023/05/18 07:05:46;;;;;;;;;;;10.70;74.00;;;;;;5075708;28;20075;-67
2023/05/18 07:08:12;;;;;;;;;;;10.70;73.90;;;;;;5080833;28;19975;-67
2023/05/18 07:10:40;;;;;;;;;;;10.70;73.80;;;;;;5084749;28;19982;-67
2023/05/18 07:13:07;;;;;;;;;;;10.70;73.80;;;;;;5085479;28;20065;-67
2023/05/18 07:15:33;;;;;;;;;;;10.70;73.70;;;;;;5086781;28;20007;-67
2023/05/18 07:18:00;;;;;;;;;;;10.70;73.50;;;;;;5085975;28;19998;-68
2023/05/18 07:20:26;;;;;;;;;;;10.70;73.50;;;;;;5085766;28;19979;-68
2023/05/18 07:22:54;;;;;;;;;;;10.80;73.50;;;;;;5088509;28;19998;-67
2023/05/18 07:25:20;;;;;;;;;;;10.80;73.70;;;;;;5085027;28;20411;-67
2023/05/18 07:27:50;;;;;;;;;;;10.80;73.60;;;;;;5081658;28;20074;-67
2023/05/18 07:30:17;;;;;;;;;;;10.80;73.70;;;;;;5080157;28;20052;-67
2023/05/18 07:32:44;;;;;;;;;;;10.90;73.80;;;;;;5088690;28;19983;-67
2023/05/18 07:35:11;;;;;;;;;;;10.90;73.70;;;;;;5084202;28;19998;-67
2023/05/18 07:37:37;;;;;;;;;;;10.90;73.60;;;;;;5088536;28;20094;-67
2023/05/18 07:40:05;;;;;;;;;;;10.90;73.60;;;;;;5083298;28;19979;-67
2023/05/18 07:42:32;;;;;;;;;;;11.00;73.50;;;;;;5078195;28;20029;-67
2023/05/18 07:45:00;;;;;;;;;;;11.00;73.40;;;;;;5082002;28;19977;-67
2023/05/18 07:47:27;;;;;;;;;;;11.00;73.40;;;;;;5090077;28;19999;-67
2023/05/18 07:49:53;;;;;;;;;;;11.00;73.40;;;;;;5089044;28;19975;-67
2023/05/18 07:52:20;;;;;;;;;;;11.00;73.40;;;;;;5087323;28;19975;-67
2023/05/18 07:54:46;;;;;;;;;;;11.10;73.40;;;;;;5086185;28;19975;-67
2023/05/18 07:57:13;;;;;;;;;;;11.10;73.40;;;;;;5089002;28;19997;-67
2023/05/18 07:59:39;;;;;;;;;;;11.10;73.30;;;;;;5087425;28;19983;-67
2023/05/18 08:02:07;;;;;;;;;;;11.10;73.30;;;;;;5089107;28;19991;-67
2023/05/18 08:04:34;;;;;;;;;;;11.20;73.30;;;;;;5084706;28;19979;-67
2023/05/18 08:07:00;;;;;;;;;;;11.20;73.30;;;;;;5089195;28;20131;-68
2023/05/18 08:09:27;;;;;;;;;;;11.20;73.30;;;;;;5084449;28;20040;-68
2023/05/18 08:11:53;;;;;;;;;;;11.30;73.40;;;;;;5078197;28;19975;-68
2023/05/18 08:14:20;;;;;;;;;;;11.30;73.50;;;;;;5082815;28;19982;-68
2023/05/18 08:16:47;;;;;;;;;;;11.30;73.50;;;;;;5085409;28;19994;-67
2023/05/18 08:19:15;;;;;;;;;;;11.40;73.50;;;;;;5083299;28;20460;-67
2023/05/18 08:21:41;;;;;;;;;;;11.40;73.50;;;;;;5080347;28;19979;-67
2023/05/18 08:24:08;;;;;;;;;;;11.40;73.50;;;;;;5083862;28;20028;-67
2023/05/18 08:26:35;;;;;;;;;;;11.50;73.80;;;;;;5085065;28;20002;-68
2023/05/18 08:29:08;;;;;;;;;;;11.50;73.60;;;;;;5082730;28;19983;-67
2023/05/18 08:31:34;;;;;;;;;;;11.50;73.20;;;;;;5080246;28;20125;-67
2023/05/18 08:34:01;;;;;;;;;;;11.60;73.10;;;;;;5083357;28;19975;-67
2023/05/18 08:36:29;;;;;;;;;;;11.60;73.10;;;;;;5086158;28;19993;-68
2023/05/18 08:38:56;;;;;;;;;;;11.60;73.20;;;;;;5085068;28;20083;-67
2023/05/18 08:41:25;;;;;;;;;;;11.70;73.10;;;;;;5081989;28;19975;-68
2023/05/18 08:43:53;;;;;;;;;;;11.70;73.00;;;;;;5075294;28;19982;-68
2023/05/18 08:46:20;;;;;;;;;;;11.70;72.80;;;;;;5078672;28;20017;-68
2023/05/18 08:48:47;;;;;;;;;;;11.80;72.80;;;;;;5084032;28;19979;-68
2023/05/18 08:51:18;;;;;;;;;;;11.80;72.80;;;;;;5079951;28;19979;-67
2023/05/18 08:53:48;;;;;;;;;;;11.90;72.80;;;;;;5090507;28;20010;-67
2023/05/18 08:56:15;;;;;;;;;;;11.90;72.60;;;;;;5081352;28;20638;-67
2023/05/18 08:58:43;;;;;;;;;;;12.00;72.60;;;;;;5083029;28;19995;-67
2023/05/18 09:01:11;;;;;;;;;;;12.00;72.40;;;;;;5087329;27;19998;-68
2023/05/18 09:03:38;;;;;;;;;;;12.10;73.10;;;;;;5090267;28;19983;-67
2023/05/18 09:06:05;;;;;;;;;;;12.10;72.10;;;;;;5075439;28;19991;-67
2023/05/18 09:08:31;;;;;;;;;;;12.20;72.20;;;;;;5082779;28;20068;-68
2023/05/18 09:11:01;;;;;;;;;;;12.20;72.20;;;;;;5082951;28;20484;-68
2023/05/18 09:13:28;;;;;;;;;;;12.20;71.90;;;;;;5085402;28;20029;-67
2023/05/18 09:15:54;;;;;;;;;;;12.30;71.80;;;;;;5080322;28;19995;-67
2023/05/18 09:18:21;;;;;;;;;;;12.30;71.80;;;;;;5078827;28;20069;-67
2023/05/18 09:20:47;;;;;;;;;;;12.30;71.60;;;;;;5079020;28;20445;-67
2023/05/18 09:23:15;;;;;;;;;;;12.40;71.40;;;;;;5082377;28;19975;-67
2023/05/18 09:25:42;;;;;;;;;;;12.40;71.20;;;;;;5082462;28;19983;-68
2023/05/18 09:28:10;;;;;;;;;;;12.50;71.20;;;;;;5082771;28;19979;-69
2023/05/18 09:30:40;;;;;;;;;;;12.50;71.30;;;;;;5082023;28;19999;-68
2023/05/18 09:33:15;;;;;;;;;;;12.60;71.30;;;;;;5081830;28;20086;-67
2023/05/18 09:35:42;;;;;;;;;;;12.70;71.00;;;;;;5090298;28;19990;-68
2023/05/18 09:38:09;;;;;;;;;;;12.80;70.70;;;;;;5089162;28;19993;-67
2023/05/18 09:40:36;;;;;;;;;;;12.80;70.40;;;;;;5088927;28;20079;-68
2023/05/18 09:43:06;;;;;;;;;;;12.80;70.10;;;;;;5082461;28;19980;-68
2023/05/18 09:45:38;;;;;;;;;;;12.90;70.00;;;;;;5084244;28;20003;-68
2023/05/18 09:48:07;;;;;;;;;;;13.00;70.00;;;;;;5082493;28;20001;-68
2023/05/18 09:50:33;;;;;;;;;;;13.10;69.50;;;;;;5084319;28;19990;-67
2023/05/18 09:53:00;;;;;;;;;;;13.20;69.40;;;;;;5088249;28;19983;-67
2023/05/18 09:55:26;;;;;;;;;;;13.20;69.40;;;;;;5091575;28;19974;-68
2023/05/18 09:57:53;;;;;;;;;;;13.30;69.40;;;;;;5088790;28;20002;-68
2023/05/18 10:00:20;;;;;;;;;;;13.30;68.70;;;;;;5086006;28;19974;-68
2023/05/18 10:02:51;;;;;;;;;;;13.40;68.40;;;;;;5081349;28;20077;-68
2023/05/18 10:05:20;;;;;;;;;;;13.50;68.20;;;;;;5074787;28;19982;-68
2023/05/18 10:07:47;;;;;;;;;;;13.60;68.00;;;;;;5089146;28;19994;-68
2023/05/18 10:10:17;;;;;;;;;;;13.60;67.80;;;;;;5087378;28;20065;-68
2023/05/18 10:12:43;;;;;;;;;;;13.70;67.60;;;;;;5081072;28;19990;-69
2023/05/18 10:15:10;;;;;;;;;;;13.80;67.80;;;;;;5090080;28;19982;-68
2023/05/18 10:17:38;;;;;;;;;;;13.80;67.40;;;;;;5083370;28;20741;-67
2023/05/18 10:20:09;;;;;;;;;;;13.90;67.00;;;;;;5085006;28;19998;-67
2023/05/18 10:22:36;;;;;;;;;;;14.00;66.60;;;;;;5082740;28;19986;-68
2023/05/18 10:25:04;;;;;;;;;;;14.10;66.10;;;;;;5085322;28;19983;-68
2023/05/18 10:27:34;;;;;;;;;;;14.10;65.40;;;;;;5081009;28;20022;-68
2023/05/18 10:30:02;;;;;;;;;;;14.20;64.80;;;;;;5074591;28;20432;-68
2023/05/18 10:32:29;;;;;;;;;;;14.30;64.70;;;;;;5070313;28;19998;-68
2023/05/18 10:34:56;;;;;;;;;;;14.30;64.50;;;;;;5085535;28;20070;-68
2023/05/18 10:37:29;;;;;;;;;;;14.40;64.10;;;;;;5081625;28;20003;-67
2023/05/18 10:39:56;;;;;;;;;;;14.40;63.50;;;;;;5082088;28;19991;-68
2023/05/18 10:42:23;;;;;;;;;;;14.50;63.20;;;;;;5084176;28;20149;-67
2023/05/18 10:44:50;;;;;;;;;;;14.60;62.80;;;;;;5082231;28;20373;-69
2023/05/18 10:47:17;;;;;;;;;;;14.60;62.70;;;;;;5081988;28;19995;-67
2023/05/18 10:49:45;;;;;;;;;;;14.70;62.40;;;;;;5085468;28;20447;-68
2023/05/18 10:52:12;;;;;;;;;;;14.80;62.60;;;;;;5084132;28;19981;-68
2023/05/18 10:54:41;;;;;;;;;;;14.90;62.70;;;;;;5088036;28;19990;-68
2023/05/18 10:57:11;;;;;;;;;;;14.90;62.50;;;;;;5082777;28;19994;-68
2023/05/18 10:59:38;;;;;;;;;;;15.00;62.50;;;;;;5084194;28;20010;-68
2023/05/18 11:02:06;;;;;;;;;;;15.10;62.80;;;;;;5088576;28;20044;-68
2023/05/18 11:04:32;;;;;;;;;;;15.20;62.70;;;;;;5084669;28;20395;-67
2023/05/18 11:06:59;;;;;;;;;;;15.30;62.30;;;;;;5087697;28;20013;-68
2023/05/18 11:09:26;;;;;;;;;;;15.30;61.90;;;;;;5084982;28;19978;-68
2023/05/18 11:11:56;;;;;;;;;;;15.40;61.90;;;;;;5088609;28;20348;-68
2023/05/18 11:14:27;;;;;;;;;;;15.40;61.70;;;;;;5083301;28;19978;-68
2023/05/18 11:16:53;;;;;;;;;;;15.50;61.60;;;;;;5089718;28;20439;-68
2023/05/18 11:19:24;;;;;;;;;;;15.50;61.60;;;;;;5079640;28;19995;-68
2023/05/18 11:21:51;;;;;;;;;;;15.50;61.50;;;;;;5082928;28;19979;-69
2023/05/18 11:24:19;;;;;;;;;;;15.50;61.30;;;;;;5084237;28;19979;-68
2023/05/18 11:26:46;;;;;;;;;;;15.60;61.10;;;;;;5084233;28;19991;-68
2023/05/18 11:29:18;;;;;;;;;;;15.70;60.90;;;;;;5081816;28;20010;-68
2023/05/18 11:31:45;;;;;;;;;;;15.70;60.80;;;;;;5080464;28;20035;-68
2023/05/18 11:34:26;;;;;;;;;;;15.80;60.90;;;;;;5078080;28;19975;-68
2023/05/18 11:36:55;;;;;;;;;;;15.80;60.40;;;;;;5085440;28;19999;-68
2023/05/18 11:39:23;;;;;;;;;;;15.90;60.20;;;;;;5083710;28;19991;-67
2023/05/18 11:41:58;;;;;;;;;;;16.00;59.90;;;;;;5077767;28;20020;-68
2023/05/18 11:44:27;;;;;;;;;;;16.00;59.80;;;;;;5077418;28;19983;-68
2023/05/18 11:46:55;;;;;;;;;;;16.10;59.50;;;;;;5083115;28;20480;-68
2023/05/18 11:49:23;;;;;;;;;;;16.10;59.40;;;;;;5082901;28;19983;-68
2023/05/18 11:52:11;;;;;;;;;;;16.20;60.00;;;;;;5082106;28;20089;-69
2023/05/18 11:54:39;;;;;;;;;;;16.30;59.50;;;;;;5081290;28;19979;-68
2023/05/18 11:57:06;;;;;;;;;;;16.30;59.00;;;;;;5086700;28;19997;-68
2023/05/18 11:59:36;;;;;;;;;;;16.40;58.90;;;;;;5084129;28;19995;-68
2023/05/18 12:02:03;;;;;;;;;;;16.40;58.70;;;;;;5082237;28;20015;-68
2023/05/18 12:04:31;;;;;;;;;;;16.50;59.00;;;;;;5086344;28;19982;-68
2023/05/18 12:06:57;;;;;;;;;;;16.60;58.80;;;;;;5082572;28;20060;-68
2023/05/18 12:09:25;;;;;;;;;;;16.60;58.30;;;;;;5084680;28;19975;-68
2023/05/18 12:11:51;;;;;;;;;;;16.60;58.10;;;;;;5084493;28;19983;-68
2023/05/18 12:14:18;;;;;;;;;;;16.70;58.10;;;;;;5090870;28;19971;-68
2023/05/18 12:16:47;;;;;;;;;;;16.70;58.00;;;;;;5083036;28;20091;-68
2023/05/18 12:19:13;;;;;;;;;;;16.70;57.80;;;;;;5084389;28;20377;-68
2023/05/18 12:21:40;;;;;;;;;;;16.80;57.70;;;;;;5082912;28;20751;-68
2023/05/18 12:24:07;;;;;;;;;;;16.80;57.60;;;;;;5082482;28;19976;-68
2023/05/18 12:26:33;;;;;;;;;;;16.90;57.80;;;;;;5085473;28;20019;-68
2023/05/18 12:29:00;;;;;;;;;;;17.00;57.10;;;;;;5086892;28;19987;-68
2023/05/18 12:31:27;;;;;;;;;;;17.00;57.30;;;;;;5085788;28;19995;-68
2023/05/18 12:33:55;;;;;;;;;;;17.10;57.70;;;;;;5082071;28;20353;-68
2023/05/18 12:36:21;;;;;;;;;;;17.10;57.00;;;;;;5083464;28;21365;-68
2023/05/18 12:38:49;;;;;;;;;;;17.10;56.20;;;;;;5083225;28;20085;-68
2023/05/18 12:41:22;;;;;;;;;;;17.20;56.40;;;;;;5090677;28;19982;-68
2023/05/18 12:43:50;;;;;;;;;;;17.20;56.40;;;;;;5088258;28;20016;-68
2023/05/18 12:46:17;;;;;;;;;;;17.30;56.40;;;;;;5082068;28;20105;-68
2023/05/18 12:48:45;;;;;;;;;;;17.30;56.00;;;;;;5083016;28;19978;-68
2023/05/18 12:51:19;;;;;;;;;;;17.40;56.40;;;;;;5085016;28;19976;-68
2023/05/18 12:53:45;;;;;;;;;;;17.50;56.60;;;;;;5093838;28;20066;-68
2023/05/18 12:56:13;;;;;;;;;;;17.60;56.10;;;;;;5088471;28;19995;-68
2023/05/18 12:58:40;;;;;;;;;;;17.60;56.10;;;;;;5086451;28;19979;-68
2023/05/18 13:01:07;;;;;;;;;;;17.70;55.60;;;;;;5079796;28;19998;-68
2023/05/18 13:03:33;;;;;;;;;;;17.70;55.70;;;;;;5086189;28;19986;-69
2023/05/18 13:06:04;;;;;;;;;;;17.80;55.70;;;;;;5085922;28;19996;-68
2023/05/18 13:08:32;;;;;;;;;;;17.80;55.70;;;;;;5088084;28;20054;-68
2023/05/18 13:11:00;;;;;;;;;;;17.90;55.40;;;;;;5084534;28;19984;-68
2023/05/18 13:13:27;;;;;;;;;;;17.90;55.40;;;;;;5082731;28;19983;-68
2023/05/18 13:15:54;;;;;;;;;;;17.90;54.90;;;;;;5084406;28;20023;-68
2023/05/18 13:18:20;;;;;;;;;;;18.00;54.90;;;;;;5081460;28;20444;-68
2023/05/18 13:20:49;;;;;;;;;;;18.00;55.10;;;;;;5079121;28;19996;-68
2023/05/18 13:23:17;;;;;;;;;;;18.00;54.80;;;;;;5086682;28;19974;-68
2023/05/18 13:25:45;;;;;;;;;;;18.10;54.80;;;;;;5083690;28;19978;-68
2023/05/18 13:28:12;;;;;;;;;;;18.10;55.10;;;;;;5079214;28;19976;-68
2023/05/18 13:30:39;;;;;;;;;;;18.20;55.30;;;;;;5082227;28;20039;-68
2023/05/18 13:33:07;;;;;;;;;;;18.20;55.20;;;;;;5075875;28;20061;-68
2023/05/18 13:35:34;;;;;;;;;;;18.20;55.50;;;;;;5080063;28;20007;-68
2023/05/18 13:38:00;;;;;;;;;;;18.30;55.00;;;;;;5087137;28;19982;-69
2023/05/18 13:40:27;;;;;;;;;;;18.40;54.90;;;;;;5081850;28;19991;-68
2023/05/18 13:42:56;;;;;;;;;;;18.40;55.00;;;;;;5089779;28;21397;-68
2023/05/18 13:45:23;;;;;;;;;;;18.40;53.90;;;;;;5081986;28;20170;-68
2023/05/18 13:47:50;;;;;;;;;;;18.50;52.90;;;;;;5082610;28;20002;-68
2023/05/18 13:50:17;;;;;;;;;;;18.50;53.00;;;;;;5084533;28;20623;-68
2023/05/18 13:52:45;;;;;;;;;;;18.60;53.40;;;;;;5084834;28;20476;-68
2023/05/18 13:55:11;;;;;;;;;;;18.60;53.30;;;;;;5076700;28;20066;-68
2023/05/18 13:57:38;;;;;;;;;;;18.70;53.20;;;;;;5087635;28;19995;-68
2023/05/18 14:00:10;;;;;;;;;;;18.70;53.40;;;;;;5077515;28;20435;-68
2023/05/18 14:02:36;;;;;;;;;;;18.80;53.40;;;;;;5084520;28;20109;-68
2023/05/18 14:05:04;;;;;;;;;;;18.90;53.20;;;;;;5088143;28;19976;-68
2023/05/18 14:07:30;;;;;;;;;;;18.90;53.20;;;;;;5079509;28;20002;-69
2023/05/18 14:09:57;;;;;;;;;;;19.00;53.20;;;;;;5081127;28;20004;-68
2023/05/18 14:12:23;;;;;;;;;;;19.00;53.10;;;;;;5081633;28;19983;-68
2023/05/18 14:14:50;;;;;;;;;;;19.10;53.10;;;;;;5091008;28;20024;-68
2023/05/18 14:17:18;;;;;;;;;;;19.10;52.70;;;;;;5081072;28;20002;-68